createdAt,value
2023-03-06T08:13:09.853Z,95755.69
2023-03-06T08:15:17.504Z,95754.06
2023-03-06T08:17:21.915Z,95751.66
2023-03-06T08:19:26.375Z,95750.03
2023-03-06T08:21:31.123Z,95749.97
2023-03-06T08:23:35.927Z,95752.50
2023-03-06T08:25:40.524Z,95751.44
2023-03-06T08:27:46.935Z,95760.34
2023-03-06T08:29:51.821Z,95753.22
2023-03-06T08:31:58.900Z,95762.59
2023-03-06T08:34:04.193Z,95761.78
2023-03-06T08:36:09.051Z,95758.34
2023-03-06T08:38:13.486Z,95760.13
2023-03-06T08:40:18.102Z,95763.50
2023-03-06T08:42:22.553Z,95767.69
2023-03-06T08:44:27.148Z,95767.41
2023-03-06T08:46:32.516Z,95768.19
2023-03-06T08:48:39.566Z,95762.97
2023-03-06T08:50:44.020Z,95765.31
2023-03-06T08:52:48.558Z,95771.84
2023-03-06T08:54:53.020Z,95773.63
2023-03-06T08:56:57.791Z,95772.03
2023-03-06T08:59:06.544Z,95776.72
2023-03-06T09:01:15.305Z,95774.59
2023-03-06T09:03:19.874Z,95769.59
2023-03-06T09:05:27.069Z,95768.22
2023-03-06T09:07:32.232Z,95769.53
2023-03-06T09:09:36.822Z,95766.63
2023-03-06T09:11:41.644Z,95775.03
2023-03-06T09:13:46.161Z,95771.03
2023-03-06T09:15:50.639Z,95765.22
2023-03-06T09:17:55.258Z,95766.53
2023-03-06T09:19:59.713Z,95765.19
2023-03-06T09:22:06.786Z,95766.19
2023-03-06T09:24:11.705Z,95761.16
2023-03-06T09:26:16.751Z,95766.94
2023-03-06T09:28:21.408Z,95765.06
2023-03-06T09:30:25.993Z,95764.78
2023-03-06T09:32:30.723Z,95760.59
2023-03-06T09:34:35.198Z,95762.94
2023-03-06T09:36:54.983Z,95761.59
2023-03-06T09:39:03.372Z,95757.66
2023-03-06T09:41:11.222Z,95765.75
2023-03-06T09:43:21.800Z,95759.94
2023-03-06T09:45:26.209Z,95762.00
2023-03-06T09:47:41.078Z,95763.28
2023-03-06T09:49:54.552Z,95766.41
2023-03-06T09:52:04.028Z,95771.69
2023-03-06T09:54:14.858Z,95771.97
2023-03-06T09:56:21.328Z,95762.22
2023-03-06T09:58:27.152Z,95762.75
2023-03-06T10:00:35.898Z,95762.47
2023-03-06T10:02:43.673Z,95763.72
2023-03-06T10:04:51.991Z,95762.66
2023-03-06T10:07:00.994Z,95758.19
2023-03-06T10:09:07.695Z,95753.16
2023-03-06T10:11:17.463Z,95754.16
2023-03-06T10:13:25.672Z,95758.34
2023-03-06T10:15:33.540Z,95752.84
2023-03-06T10:17:41.831Z,95756.44
2023-03-06T10:19:48.029Z,95743.00
2023-03-06T10:21:59.197Z,95749.56
2023-03-06T10:24:12.216Z,95747.16
2023-03-06T10:31:21.250Z,95746.16
2023-03-06T10:33:31.978Z,95737.44
2023-03-06T10:35:43.213Z,95740.00
2023-03-06T10:37:47.656Z,95740.19
2023-03-06T10:39:54.746Z,95741.47
2023-03-06T10:42:01.845Z,95744.88
2023-03-06T10:44:21.691Z,95740.41
2023-03-06T10:46:30.194Z,95737.28
2023-03-06T10:48:36.215Z,95739.34
2023-03-06T10:50:40.836Z,95741.97
2023-03-06T10:52:45.254Z,95743.25
2023-03-06T10:54:49.768Z,95740.34
2023-03-06T10:56:54.093Z,95744.25
2023-03-06T10:59:10.793Z,95736.84
2023-03-06T11:01:22.017Z,95740.00
2023-03-06T11:03:26.943Z,95735.22
2023-03-06T11:05:31.276Z,95729.66
2023-03-06T11:07:36.280Z,95729.41
2023-03-06T11:09:40.918Z,95733.59
2023-03-06T11:11:45.415Z,95731.47
2023-03-06T11:13:58.416Z,95728.53
2023-03-06T11:16:08.016Z,95732.75
2023-03-06T11:18:28.751Z,95734.31
2023-03-06T11:20:50.433Z,95727.69
2023-03-06T11:22:58.320Z,95728.19
2023-03-06T11:25:02.884Z,95721.06
2023-03-06T11:27:16.764Z,95719.72
2023-03-06T11:29:27.296Z,95724.69
2023-03-06T11:31:35.237Z,95727.81
2023-03-06T11:33:42.798Z,95727.53
2023-03-06T11:35:52.466Z,95717.28
2023-03-06T11:37:59.287Z,95716.50
2023-03-06T11:40:07.541Z,95714.47
2023-03-06T11:42:16.087Z,95713.69
2023-03-06T11:44:24.711Z,95710.78
2023-03-06T11:46:31.049Z,95713.59
2023-03-06T11:48:42.340Z,95710.66
2023-03-06T11:50:47.635Z,95707.75
2023-03-06T11:52:54.628Z,95710.66
2023-03-06T11:55:00.563Z,95702.28
2023-03-06T11:57:07.245Z,95714.66
2023-03-06T11:59:20.814Z,95702.28
2023-03-06T12:01:27.040Z,95704.63
2023-03-06T12:03:46.452Z,95704.34
2023-03-06T12:05:55.228Z,95705.13
2023-03-06T12:08:04.224Z,95702.19
2023-03-06T12:10:15.554Z,95693.53
2023-03-06T12:12:27.779Z,95693.53
2023-03-06T12:14:40.174Z,95691.19
2023-03-06T12:17:04.164Z,95687.78
2023-03-06T12:19:16.262Z,95681.25
2023-03-06T12:21:28.520Z,95682.59
2023-03-06T12:23:42.768Z,95682.88
2023-03-06T12:25:53.098Z,95679.78
2023-03-06T12:28:02.347Z,95678.97
2023-03-06T12:30:18.894Z,95674.00
2023-03-06T12:32:29.078Z,95676.63
2023-03-06T12:34:40.129Z,95675.06
2023-03-06T12:36:54.363Z,95669.31
2023-03-06T12:39:02.672Z,95671.19
2023-03-06T12:41:15.739Z,95671.19
2023-03-06T12:43:44.023Z,95679.06
2023-03-06T12:45:49.783Z,95678.56
2023-03-06T12:47:56.559Z,95683.06
2023-03-06T12:50:03.792Z,95677.56
2023-03-06T12:52:12.490Z,95677.88
2023-03-06T12:54:17.227Z,95675.75
2023-03-06T12:56:22.409Z,95674.69
2023-03-06T12:58:49.002Z,95674.41
2023-03-06T13:01:04.816Z,95680.72
2023-03-06T13:03:16.596Z,95674.94
2023-03-06T13:05:47.917Z,95675.22
2023-03-06T13:08:03.080Z,95673.16
2023-03-06T13:10:13.968Z,95667.41
2023-03-06T13:12:27.267Z,95665.34
2023-03-06T13:14:35.831Z,95656.66
2023-03-06T13:16:41.990Z,95670.31
2023-03-06T13:18:51.736Z,95662.91
2023-03-06T13:20:56.354Z,95661.56
2023-03-06T13:23:23.565Z,95669.16
2023-03-06T13:25:39.972Z,95658.38
2023-03-06T13:27:48.192Z,95659.97
2023-03-06T13:30:18.535Z,95661.25
2023-03-06T13:32:32.049Z,95657.81
2023-03-06T13:34:38.169Z,95661.78
2023-03-06T13:36:42.728Z,95664.72
2023-03-06T13:39:11.455Z,95665.25
2023-03-06T13:41:30.914Z,95659.00
2023-03-06T13:43:45.350Z,95659.28
2023-03-06T13:45:50.780Z,95656.19
2023-03-06T13:50:36.942Z,95661.94
2023-03-06T13:52:47.451Z,95654.03
2023-03-06T13:54:58.204Z,95658.25
2023-03-06T13:57:26.429Z,95652.22
2023-03-06T13:59:42.246Z,95642.47
2023-03-06T14:01:51.648Z,95650.56
2023-03-06T14:04:06.486Z,95647.94
2023-03-06T14:06:25.979Z,95658.16
2023-03-06T14:08:31.409Z,95653.63
2023-03-06T14:10:37.223Z,95650.13
2023-03-06T14:12:43.473Z,95645.56
2023-03-06T14:14:53.615Z,95648.88
2023-03-06T14:16:58.739Z,95646.75
2023-03-06T14:19:03.521Z,95641.97
2023-03-06T14:21:11.952Z,95640.44
2023-03-06T14:23:17.461Z,95637.81
2023-03-06T14:25:26.474Z,95635.34
2023-03-06T14:27:41.046Z,95632.66
2023-03-06T14:29:46.640Z,95622.59
2023-03-06T14:31:54.553Z,95635.16
2023-03-06T14:33:59.767Z,95629.63
2023-03-06T14:36:07.755Z,95627.50
2023-03-06T14:38:16.847Z,95625.34
2023-03-06T14:40:22.601Z,95626.63
2023-03-06T14:42:27.779Z,95619.47
2023-03-06T14:44:32.400Z,95626.78
2023-03-06T14:46:36.924Z,95616.78
2023-03-06T14:48:45.446Z,95618.13
2023-03-06T14:50:52.877Z,95619.97
2023-03-06T14:52:58.784Z,95619.78
2023-03-06T14:55:03.331Z,95617.72
2023-03-06T14:57:09.324Z,95614.13
2023-03-06T15:56:12.999Z,95650.78
2023-03-06T15:58:20.542Z,95649.09
2023-03-06T16:27:01.690Z,95663.13
2023-03-06T16:29:20.963Z,95665.00
2023-03-06T16:39:44.077Z,95669.28
2023-03-06T16:41:49.470Z,95665.88
2023-03-06T16:43:54.185Z,95668.22
2023-03-06T16:45:58.771Z,95663.44
2023-03-06T16:48:06.874Z,95668.69
2023-03-06T17:03:43.536Z,95661.34
2023-03-06T17:05:48.127Z,95662.41
2023-03-06T17:07:53.146Z,95666.41
2023-03-06T17:09:57.716Z,95668.56
2023-03-06T17:12:02.268Z,95667.75
2023-03-06T17:14:09.618Z,95667.56
2023-03-06T17:16:16.137Z,95677.31
2023-03-06T17:18:20.861Z,95675.75
2023-03-06T17:20:25.388Z,95673.41
2023-03-06T17:22:30.225Z,95675.50
2023-03-06T17:24:34.770Z,95673.16
2023-03-06T17:26:40.259Z,95672.66
2023-03-06T17:28:45.128Z,95675.59
2023-03-06T17:30:52.431Z,95685.59
2023-03-06T17:32:58.347Z,95680.13
2023-03-06T17:35:02.832Z,95679.91
2023-03-06T17:37:07.804Z,95682.06
2023-03-06T17:39:12.929Z,95682.34
2023-03-06T17:41:17.449Z,95685.56
2023-03-06T17:43:21.910Z,95685.03
2023-03-06T17:45:29.081Z,95691.97
2023-03-06T17:47:36.219Z,95682.28
2023-03-06T18:41:57.165Z,95714.44
2023-03-06T18:44:39.832Z,95710.25
2023-03-06T18:46:46.719Z,95717.84
2023-03-06T18:48:51.870Z,95715.22
2023-03-06T18:50:57.005Z,95715.22
2023-03-06T18:53:02.057Z,95711.03
2023-03-06T19:17:02.898Z,95713.22
2023-03-06T20:03:50.806Z,95721.22
2023-03-06T20:05:56.297Z,95727.25
2023-03-06T20:08:03.586Z,95725.41
2023-03-06T20:10:08.879Z,95719.38
2023-03-06T20:12:14.535Z,95713.34
2023-03-06T20:14:19.067Z,95714.63
2023-03-06T20:16:23.658Z,95721.44
2023-03-06T20:18:28.417Z,95723.28
2023-03-06T20:20:37.781Z,95723.28
2023-03-06T20:22:42.447Z,95720.16
2023-03-06T20:24:47.038Z,95726.19
2023-03-06T20:26:53.597Z,95725.41
2023-03-06T20:28:59.381Z,95726.97
2023-03-06T20:31:08.888Z,95730.38
2023-03-06T20:33:15.476Z,95731.16
2023-03-06T20:35:20.359Z,95719.09
2023-03-06T20:37:27.572Z,95727.75
2023-03-06T20:39:32.200Z,95731.66
2023-03-06T20:41:36.801Z,95729.03
2023-03-06T20:43:41.374Z,95713.56
2023-03-06T20:45:45.986Z,95722.22
2023-03-06T20:47:50.796Z,95717.47
2023-03-06T20:49:55.562Z,95712.47
2023-03-06T20:52:00.196Z,95717.72
2023-03-06T20:54:08.135Z,95717.19
2023-03-06T20:56:14.434Z,95718.53
2023-03-06T20:58:19.022Z,95716.47
2023-03-06T21:00:23.884Z,95720.16
2023-03-06T21:02:28.572Z,95718.06
2023-03-06T21:04:33.207Z,95713.38
2023-03-06T21:06:37.738Z,95718.91
2023-03-06T21:08:42.229Z,95721.53
2023-03-06T21:10:49.749Z,95720.00
2023-03-06T21:12:54.432Z,95711.88
2023-03-06T21:20:55.613Z,95712.44
2023-03-06T22:11:37.711Z,95695.69
2023-03-06T22:13:42.304Z,95696.25
2023-03-06T22:15:53.171Z,95693.63
2023-03-06T22:17:57.905Z,95695.47
2023-03-06T22:20:02.357Z,95689.44
2023-03-06T22:22:08.717Z,95683.41
2023-03-06T22:24:14.304Z,95690.50
2023-03-06T22:26:18.900Z,95690.50
2023-03-06T22:28:25.908Z,95685.28
2023-03-06T22:30:30.420Z,95690.22
2023-03-06T22:32:35.013Z,95692.06
2023-03-06T22:34:39.563Z,95684.47
2023-03-06T22:36:44.285Z,95684.47
2023-03-06T22:38:49.479Z,95678.16
2023-03-06T22:40:53.892Z,95677.41
2023-03-06T22:42:58.367Z,95673.97
2023-03-06T22:45:05.431Z,95671.13
2023-03-06T22:47:10.152Z,95674.03
2023-03-06T22:49:16.922Z,95661.97
2023-03-06T22:51:22.143Z,95664.03
2023-03-06T22:53:26.625Z,95664.81
2023-03-06T22:55:31.189Z,95665.59
2023-03-06T22:57:35.792Z,95659.28
2023-03-06T22:59:40.262Z,95654.03
2023-03-06T23:01:47.267Z,95646.97
2023-03-06T23:03:53.073Z,95652.22
2023-03-06T23:05:57.477Z,95645.13
2023-03-06T23:08:01.991Z,95655.34
2023-03-06T23:10:07.266Z,95656.13
2023-03-06T23:12:30.638Z,95643.56
2023-03-06T23:14:53.693Z,95640.94
2023-03-06T23:17:19.395Z,95647.47
2023-03-06T23:19:42.431Z,95646.91
2023-03-06T23:22:05.649Z,95640.63
2023-03-06T23:24:28.753Z,95634.31
2023-03-06T23:26:34.273Z,95643.72
2023-03-06T23:28:38.768Z,95644.81
2023-03-06T23:30:43.815Z,95641.38
2023-03-06T23:32:50.861Z,95637.22
2023-03-06T23:34:55.375Z,95637.22
2023-03-06T23:36:59.848Z,95643.22
2023-03-06T23:39:04.596Z,95638.75
2023-03-06T23:41:09.793Z,95631.16
2023-03-06T23:43:14.222Z,95641.66
2023-03-06T23:45:18.744Z,95640.88
2023-03-06T23:47:23.290Z,95633.78
2023-03-06T23:49:30.445Z,95645.09
2023-03-06T23:51:34.891Z,95641.66
2023-03-06T23:53:39.487Z,95639.31
2023-03-06T23:55:44.259Z,95648.28
2023-03-06T23:57:48.933Z,95650.09
2023-03-06T23:59:53.517Z,95646.44
